Time;durP1;ratioP1;P1;durP2;ratioP2;P2;SDS_P1;SDS_P2;PMS_P1;PMS_P2;Temp;Humidity;BMP_temperature;BMP_pressure;BME280_temperature;BME280_humidity;BME280_pressure;Samples;Min_cycle;Max_cycle;Signal;HPM_P1;HPM_P2
2023/07/15 00:00:14;;;;;;;7.32;1.25;;;14.70;99.90;;;;;;5046862;28;20036;-56
2023/07/15 00:02:45;;;;;;;11.32;1.10;;;14.70;99.90;;;;;;5048534;28;20383;-56
2023/07/15 00:05:18;;;;;;;5.80;1.35;;;14.70;99.90;;;;;;5047495;28;20037;-57
2023/07/15 00:07:49;;;;;;;7.00;1.35;;;14.70;99.90;;;;;;5054263;28;20550;-56
2023/07/15 00:10:17;;;;;;;10.60;1.80;;;14.80;99.90;;;;;;5049185;28;20056;-55
2023/07/15 00:12:45;;;;;;;7.45;1.38;;;14.80;99.90;;;;;;5050318;28;20053;-56
2023/07/15 00:15:13;;;;;;;3.88;0.90;;;14.80;99.90;;;;;;5049478;28;20052;-55
2023/07/15 00:17:41;;;;;;;4.15;1.05;;;14.90;99.90;;;;;;5050278;28;20037;-55
2023/07/15 00:20:14;;;;;;;7.85;1.50;;;14.80;99.90;;;;;;5046325;28;20076;-59
2023/07/15 00:22:45;;;;;;;10.68;1.58;;;14.80;99.90;;;;;;5050541;28;20579;-58
2023/07/15 00:25:16;;;;;;;14.20;1.45;;;14.80;99.90;;;;;;5048110;28;20056;-56
2023/07/15 00:27:44;;;;;;;7.10;1.67;;;14.70;99.90;;;;;;5050556;28;20049;-59
2023/07/15 00:30:16;;;;;;;5.53;1.25;;;14.60;99.90;;;;;;5016145;28;20045;-59
2023/07/15 00:32:46;;;;;;;5.25;2.08;;;14.50;99.90;;;;;;5050105;28;20048;-61
2023/07/15 00:35:28;;;;;;;10.95;1.30;;;14.50;99.90;;;;;;5045736;28;20068;-58
2023/07/15 00:37:59;;;;;;;7.25;1.27;;;14.50;99.90;;;;;;5033332;28;20049;-58
2023/07/15 00:40:28;;;;;;;8.95;1.50;;;14.40;99.90;;;;;;5049190;28;20044;-56
2023/07/15 00:43:33;;;;;;;5.20;1.38;;;14.30;99.90;;;;;;5030536;28;20041;-57
2023/07/15 00:46:22;;;;;;;6.90;1.20;;;14.30;99.90;;;;;;5043878;28;20041;-56
2023/07/15 00:49:13;;;;;;;4.87;1.30;;;14.20;99.90;;;;;;5046247;28;20056;-58
2023/07/15 00:51:48;;;;;;;6.40;1.33;;;14.10;99.90;;;;;;5014736;28;20056;-58
2023/07/15 00:54:18;;;;;;;10.48;1.60;;;14.10;99.90;;;;;;5049426;28;20064;-58
2023/07/15 00:56:46;;;;;;;19.10;2.97;;;14.00;99.90;;;;;;5047495;28;20041;-59
2023/07/15 00:59:16;;;;;;;10.40;2.10;;;14.00;99.90;;;;;;5047874;28;20056;-59
2023/07/15 01:01:46;;;;;;;5.95;1.30;;;13.70;99.90;;;;;;5047647;28;20064;-59
2023/07/15 01:04:15;;;;;;;10.20;1.98;;;13.90;99.90;;;;;;5043711;28;20523;-57
2023/07/15 01:06:45;;;;;;;8.02;1.67;;;13.90;99.90;;;;;;5050656;28;20045;-58
2023/07/15 01:09:13;;;;;;;7.60;1.77;;;13.90;99.90;;;;;;5045710;28;20497;-59
2023/07/15 01:11:41;;;;;;;5.95;1.73;;;13.90;99.90;;;;;;5041326;28;20053;-58
2023/07/15 01:14:12;;;;;;;4.97;2.17;;;13.90;99.90;;;;;;5043593;28;20049;-59
2023/07/15 01:16:40;;;;;;;6.88;2.10;;;13.90;99.90;;;;;;5043301;28;20140;-59
2023/07/15 01:19:08;;;;;;;5.28;2.15;;;14.00;99.90;;;;;;5042588;28;20048;-59
2023/07/15 01:21:37;;;;;;;6.97;2.15;;;14.00;99.90;;;;;;5039968;28;20037;-56
2023/07/15 01:24:07;;;;;;;6.28;2.00;;;14.00;99.90;;;;;;5044440;28;20041;-56
2023/07/15 01:26:35;;;;;;;10.63;2.42;;;14.10;99.90;;;;;;5039815;28;20419;-57
2023/07/15 01:29:03;;;;;;;6.70;2.10;;;14.20;99.90;;;;;;5045476;28;20041;-56
2023/07/15 01:31:31;;;;;;;13.02;3.10;;;14.20;99.90;;;;;;5038990;28;20045;-56
2023/07/15 01:33:59;;;;;;;10.10;2.00;;;14.20;99.90;;;;;;5049046;28;20052;-57
2023/07/15 01:36:28;;;;;;;17.15;2.85;;;14.30;99.90;;;;;;5029102;28;20053;-57
2023/07/15 01:38:55;;;;;;;12.25;2.50;;;14.30;99.90;;;;;;5048726;28;20052;-57
2023/07/15 01:41:23;;;;;;;12.48;2.70;;;14.30;99.90;;;;;;5010357;28;20045;-56
2023/07/15 01:43:51;;;;;;;14.73;2.30;;;14.40;99.90;;;;;;5049467;28;20073;-56
2023/07/15 01:46:19;;;;;;;7.30;2.45;;;14.40;99.90;;;;;;5047772;28;20033;-56
2023/07/15 01:48:48;;;;;;;10.48;2.22;;;14.40;99.90;;;;;;5045691;28;20045;-56
2023/07/15 01:51:15;;;;;;;16.20;2.25;;;14.40;99.90;;;;;;5043640;28;20044;-58
2023/07/15 01:53:43;;;;;;;9.02;2.30;;;14.40;99.90;;;;;;5047900;28;20053;-57
2023/07/15 01:56:11;;;;;;;7.32;2.10;;;14.50;99.90;;;;;;5042969;28;20048;-58
2023/07/15 01:58:39;;;;;;;11.25;3.17;;;14.50;99.90;;;;;;5049455;28;20519;-57
2023/07/15 02:01:06;;;;;;;10.65;2.65;;;14.40;99.90;;;;;;5047909;28;20053;-56
2023/07/15 02:03:34;;;;;;;10.63;2.92;;;14.40;99.90;;;;;;5046472;28;20060;-57
2023/07/15 02:06:03;;;;;;;10.82;2.38;;;14.40;99.90;;;;;;5050771;28;20065;-56
2023/07/15 02:08:32;;;;;;;12.35;2.38;;;14.40;99.90;;;;;;5048746;28;20057;-56
2023/07/15 02:11:00;;;;;;;10.27;1.98;;;14.30;99.90;;;;;;5049765;28;20045;-56
2023/07/15 02:13:28;;;;;;;10.60;2.25;;;14.30;99.90;;;;;;5050246;28;20055;-56
2023/07/15 02:15:55;;;;;;;13.00;2.50;;;14.30;99.90;;;;;;5051863;28;20052;-56
2023/07/15 02:18:25;;;;;;;9.95;2.10;;;14.30;99.90;;;;;;5050850;28;20052;-57
2023/07/15 02:20:53;;;;;;;15.48;2.67;;;14.30;99.90;;;;;;5050585;28;20045;-57
2023/07/15 02:23:22;;;;;;;7.20;2.40;;;14.30;99.90;;;;;;5044759;28;20041;-56
2023/07/15 02:25:50;;;;;;;19.30;2.77;;;14.30;99.90;;;;;;5047925;28;20049;-56
2023/07/15 02:28:17;;;;;;;9.27;2.25;;;14.30;99.90;;;;;;5051606;28;20041;-55
2023/07/15 02:30:45;;;;;;;16.88;2.60;;;14.30;99.90;;;;;;5051706;28;20048;-57
2023/07/15 02:33:12;;;;;;;14.07;2.00;;;14.30;99.90;;;;;;5043494;28;20041;-55
2023/07/15 02:35:40;;;;;;;9.63;2.70;;;14.30;99.90;;;;;;5048873;28;20060;-56
2023/07/15 02:38:09;;;;;;;12.48;2.75;;;14.30;99.90;;;;;;5052537;28;20033;-56
2023/07/15 02:40:36;;;;;;;8.77;2.28;;;14.30;99.90;;;;;;5051147;28;20382;-57
2023/07/15 02:43:04;;;;;;;16.17;2.88;;;14.30;99.90;;;;;;5050518;28;20044;-55
2023/07/15 02:45:32;;;;;;;6.75;1.92;;;14.30;99.90;;;;;;5051109;28;20511;-56
2023/07/15 02:48:00;;;;;;;13.77;2.40;;;14.30;99.90;;;;;;5047662;28;20048;-55
2023/07/15 02:50:28;;;;;;;8.77;2.38;;;14.20;99.90;;;;;;5049035;28;20507;-55
2023/07/15 02:52:55;;;;;;;5.45;2.03;;;14.30;99.90;;;;;;5050835;28;20040;-55
2023/07/15 02:55:23;;;;;;;11.77;2.40;;;14.30;99.90;;;;;;5045528;28;20714;-56
2023/07/15 02:57:51;;;;;;;10.38;2.58;;;14.30;99.90;;;;;;5046875;28;20044;-56
2023/07/15 03:00:18;;;;;;;11.30;2.20;;;14.30;99.90;;;;;;5043318;28;20041;-57
2023/07/15 03:02:48;;;;;;;8.73;1.98;;;14.30;99.90;;;;;;5050225;28;20581;-56
2023/07/15 03:05:16;;;;;;;12.07;2.08;;;14.30;99.90;;;;;;5047646;28;20056;-55
2023/07/15 03:07:46;;;;;;;11.27;2.47;;;14.30;99.90;;;;;;5049787;28;20480;-59
2023/07/15 03:10:15;;;;;;;12.23;3.00;;;14.30;99.90;;;;;;5047664;28;20384;-57
2023/07/15 03:12:43;;;;;;;19.98;2.85;;;14.30;99.90;;;;;;5044773;28;20056;-59
2023/07/15 03:15:10;;;;;;;9.70;1.95;;;14.30;99.90;;;;;;5050726;28;20041;-59
2023/07/15 03:17:38;;;;;;;10.38;2.28;;;14.30;99.90;;;;;;5050641;28;20048;-59
2023/07/15 03:20:30;;;;;;;6.07;2.10;;;14.30;99.90;;;;;;5048308;28;20059;-59
2023/07/15 03:22:57;;;;;;;6.97;2.28;;;14.20;99.90;;;;;;5049177;28;20052;-59
2023/07/15 03:25:25;;;;;;;11.98;2.40;;;14.20;99.90;;;;;;5047000;28;20041;-59
2023/07/15 03:27:53;;;;;;;10.10;2.40;;;14.20;99.90;;;;;;5048574;28;20052;-59
2023/07/15 03:30:21;;;;;;;9.30;2.78;;;14.20;99.90;;;;;;5047263;28;20041;-58
2023/07/15 03:32:53;;;;;;;9.77;2.20;;;14.20;99.90;;;;;;5049360;28;20048;-59
2023/07/15 03:35:21;;;;;;;4.60;2.03;;;14.20;99.90;;;;;;5048955;28;20045;-58
2023/07/15 03:37:49;;;;;;;9.75;2.67;;;14.20;99.90;;;;;;5057806;28;20499;-59
2023/07/15 03:40:17;;;;;;;5.78;2.15;;;14.20;99.90;;;;;;5053572;28;20053;-59
2023/07/15 03:42:44;;;;;;;9.93;2.20;;;14.20;99.90;;;;;;5054477;28;20049;-59
2023/07/15 03:45:12;;;;;;;6.60;2.03;;;14.30;99.90;;;;;;5054782;28;20049;-59
2023/07/15 03:47:40;;;;;;;6.85;2.08;;;14.30;99.90;;;;;;5053894;28;20037;-60
2023/07/15 03:50:11;;;;;;;10.23;2.88;;;14.30;99.90;;;;;;5051809;28;20041;-59
2023/07/15 03:52:39;;;;;;;9.88;2.40;;;14.30;99.90;;;;;;5052864;28;20048;-59
2023/07/15 03:55:07;;;;;;;7.40;2.38;;;14.30;99.90;;;;;;5054168;28;20501;-59
2023/07/15 03:57:35;;;;;;;8.32;2.83;;;14.40;99.90;;;;;;5054432;28;20400;-59
2023/07/15 04:00:06;;;;;;;8.07;2.92;;;14.40;99.90;;;;;;5053319;28;20045;-58
2023/07/15 04:02:49;;;;;;;13.02;2.60;;;14.40;99.90;;;;;;5053874;28;20049;-59
2023/07/15 04:05:17;;;;;;;6.75;2.38;;;14.40;99.90;;;;;;5054447;28;20045;-56
2023/07/15 04:07:45;;;;;;;12.43;3.10;;;14.40;99.90;;;;;;5055104;28;20071;-57
2023/07/15 04:10:12;;;;;;;8.48;2.20;;;14.40;99.90;;;;;;5051014;28;20059;-57
2023/07/15 04:12:40;;;;;;;8.40;1.80;;;14.40;99.90;;;;;;5052877;28;20036;-56
2023/07/15 04:15:08;;;;;;;7.20;2.40;;;14.40;99.90;;;;;;5054271;28;20048;-56
2023/07/15 04:17:36;;;;;;;11.50;2.30;;;14.40;99.90;;;;;;5054156;28;20051;-57
2023/07/15 04:20:10;;;;;;;6.78;2.25;;;14.50;99.90;;;;;;5049423;28;20033;-56
2023/07/15 04:22:37;;;;;;;10.38;2.45;;;14.50;99.90;;;;;;5053807;28;20048;-59
2023/07/15 04:25:05;;;;;;;7.20;2.05;;;14.50;99.90;;;;;;5053810;28;20067;-59
2023/07/15 04:27:34;;;;;;;10.00;2.60;;;14.50;99.90;;;;;;5053859;28;20052;-58
2023/07/15 04:30:03;;;;;;;12.02;3.35;;;14.50;99.90;;;;;;5044640;28;20045;-59
2023/07/15 04:32:31;;;;;;;7.95;2.42;;;14.50;99.90;;;;;;5049433;28;20040;-59
2023/07/15 04:34:58;;;;;;;5.18;1.92;;;14.50;99.90;;;;;;5051146;28;20045;-59
2023/07/15 04:37:26;;;;;;;10.80;2.75;;;14.50;99.90;;;;;;5055323;28;20041;-59
2023/07/15 04:39:54;;;;;;;10.18;2.33;;;14.50;99.90;;;;;;5053577;28;20072;-59
2023/07/15 04:42:22;;;;;;;10.10;2.72;;;14.60;99.90;;;;;;5049767;28;20045;-59
2023/07/15 04:44:50;;;;;;;7.55;2.22;;;14.50;99.90;;;;;;5053530;28;20404;-59
2023/07/15 04:47:18;;;;;;;11.05;2.72;;;14.60;99.90;;;;;;5047774;28;20054;-56
2023/07/15 04:49:45;;;;;;;8.82;2.08;;;14.60;99.90;;;;;;5044625;28;20049;-56
2023/07/15 04:52:13;;;;;;;8.13;2.00;;;14.60;99.90;;;;;;5049782;28;20052;-58
2023/07/15 04:54:40;;;;;;;10.25;2.35;;;14.60;99.90;;;;;;5049498;28;20056;-59
2023/07/15 04:57:09;;;;;;;7.57;2.13;;;14.60;99.90;;;;;;5049591;28;20040;-58
2023/07/15 04:59:37;;;;;;;10.93;2.15;;;14.60;99.90;;;;;;5048382;28;20040;-56
2023/07/15 05:02:05;;;;;;;8.23;2.40;;;14.70;99.90;;;;;;5043986;28;20048;-57
2023/07/15 05:04:33;;;;;;;8.63;2.22;;;14.60;99.90;;;;;;5036714;28;20499;-56
2023/07/15 05:07:01;;;;;;;6.38;2.30;;;14.70;99.90;;;;;;5039849;28;20045;-56
2023/07/15 05:09:31;;;;;;;8.60;2.88;;;14.70;99.90;;;;;;5044298;28;20511;-56
2023/07/15 05:11:58;;;;;;;5.65;1.85;;;14.70;99.90;;;;;;5045593;28;20040;-56
2023/07/15 05:14:26;;;;;;;8.25;2.47;;;14.70;99.90;;;;;;5044624;28;20056;-56
2023/07/15 05:16:54;;;;;;;12.20;2.13;;;14.70;99.90;;;;;;5046060;28;20379;-57
2023/07/15 05:19:23;;;;;;;13.65;2.45;;;14.70;99.90;;;;;;5046357;28;20041;-57
2023/07/15 05:21:50;;;;;;;12.75;2.17;;;14.70;99.90;;;;;;5041425;28;20053;-56
2023/07/15 05:24:18;;;;;;;12.43;2.13;;;14.70;99.90;;;;;;5039726;28;20057;-55
2023/07/15 05:26:46;;;;;;;9.55;2.00;;;14.70;99.90;;;;;;5045876;28;20052;-57
2023/07/15 05:29:14;;;;;;;11.75;2.40;;;14.70;99.90;;;;;;5047018;28;20071;-57
2023/07/15 05:31:41;;;;;;;11.40;2.47;;;14.80;99.90;;;;;;5044324;28;20045;-56
2023/07/15 05:34:09;;;;;;;11.38;2.35;;;14.80;99.90;;;;;;5049568;28;20072;-56
2023/07/15 05:36:37;;;;;;;8.55;1.98;;;14.80;99.90;;;;;;5047727;28;20068;-56
2023/07/15 05:39:04;;;;;;;10.25;2.10;;;14.80;99.90;;;;;;5048946;28;20045;-59
2023/07/15 05:41:32;;;;;;;16.45;2.33;;;14.80;99.90;;;;;;5045721;28;20055;-57
2023/07/15 05:44:00;;;;;;;6.82;2.50;;;14.80;99.90;;;;;;5048317;28;20045;-58
2023/07/15 05:46:28;;;;;;;13.65;2.08;;;14.80;99.90;;;;;;5043022;28;20413;-58
2023/07/15 05:48:56;;;;;;;9.07;2.42;;;14.80;99.90;;;;;;5048687;28;20071;-58
2023/07/15 05:51:23;;;;;;;13.75;2.55;;;14.90;99.90;;;;;;5046402;28;20056;-58
2023/07/15 05:53:51;;;;;;;6.68;2.78;;;14.90;99.90;;;;;;5048068;28;20489;-58
2023/07/15 05:56:19;;;;;;;12.07;2.42;;;15.00;99.90;;;;;;5048394;28;20049;-59
2023/07/15 05:58:47;;;;;;;7.38;2.33;;;;;;;;;;5042391;28;20056;-59
2023/07/15 06:01:14;;;;;;;9.95;2.42;;;15.10;99.90;;;;;;5040722;28;20057;-58
2023/07/15 06:03:43;;;;;;;13.60;2.75;;;15.10;99.90;;;;;;5044765;28;20396;-57
2023/07/15 06:06:12;;;;;;;13.90;2.47;;;15.10;99.90;;;;;;5046369;28;20036;-59
2023/07/15 06:08:41;;;;;;;8.50;2.25;;;15.20;99.90;;;;;;5046272;28;20060;-59
2023/07/15 06:11:09;;;;;;;9.23;2.45;;;15.30;99.90;;;;;;5026562;28;20056;-59
2023/07/15 06:13:37;;;;;;;12.45;2.15;;;15.30;99.90;;;;;;5047074;28;20033;-59
2023/07/15 06:16:04;;;;;;;8.00;2.13;;;15.40;99.90;;;;;;5047372;28;20420;-60
2023/07/15 06:18:32;;;;;;;11.20;1.92;;;15.50;99.90;;;;;;5050448;28;20060;-58
2023/07/15 06:21:00;;;;;;;11.25;2.38;;;15.60;99.90;;;;;;5025060;28;20057;-59
2023/07/15 06:23:28;;;;;;;14.50;2.20;;;15.60;99.90;;;;;;5007612;28;20413;-60
2023/07/15 06:25:55;;;;;;;12.05;2.05;;;15.60;99.90;;;;;;5042467;28;20045;-59
2023/07/15 06:28:23;;;;;;;9.93;2.20;;;15.60;99.90;;;;;;5048112;28;20526;-59
2023/07/15 06:31:08;;;;;;;8.13;2.08;;;15.60;99.90;;;;;;5047647;28;20042;-59
2023/07/15 06:33:36;;;;;;;14.05;2.60;;;15.60;99.90;;;;;;5042065;28;20049;-59
2023/07/15 06:36:04;;;;;;;20.30;2.78;;;15.60;99.90;;;;;;5047907;28;20519;-58
2023/07/15 06:38:32;;;;;;;12.70;3.00;;;15.60;99.90;;;;;;5043417;28;20091;-59
2023/07/15 06:41:00;;;;;;;4.90;1.58;;;15.60;99.90;;;;;;5033596;28;20745;-57
2023/07/15 06:43:27;;;;;;;10.32;2.03;;;15.60;99.90;;;;;;5046378;28;20041;-59
2023/07/15 06:45:55;;;;;;;11.30;2.10;;;15.60;99.90;;;;;;5030090;28;20404;-59
2023/07/15 06:48:23;;;;;;;12.57;1.90;;;15.60;99.90;;;;;;5047644;28;20123;-57
2023/07/15 06:50:50;;;;;;;13.35;2.80;;;15.60;99.90;;;;;;5046689;28;20067;-56
2023/07/15 06:53:18;;;;;;;12.93;2.33;;;15.70;99.90;;;;;;5046035;28;20045;-56
2023/07/15 06:55:46;;;;;;;8.60;2.42;;;15.70;99.90;;;;;;5047987;28;20052;-57
2023/07/15 06:58:13;;;;;;;9.73;2.45;;;15.70;99.90;;;;;;5047817;28;20052;-57
2023/07/15 07:00:41;;;;;;;9.27;2.13;;;15.70;99.90;;;;;;5045040;28;20049;-56
2023/07/15 07:03:09;;;;;;;9.73;2.25;;;15.70;99.90;;;;;;5045740;28;20649;-57
2023/07/15 07:05:37;;;;;;;8.10;1.73;;;15.70;99.90;;;;;;5037390;28;20041;-57
2023/07/15 07:08:05;;;;;;;8.63;2.10;;;15.70;99.90;;;;;;5045526;28;20041;-56
2023/07/15 07:10:32;;;;;;;10.48;3.75;;;15.70;99.90;;;;;;5044026;28;20404;-56
2023/07/15 07:13:00;;;;;;;7.72;1.90;;;15.80;99.90;;;;;;5046973;28;20056;-57
2023/07/15 07:15:29;;;;;;;10.80;2.28;;;15.80;99.90;;;;;;5047412;28;20048;-58
2023/07/15 07:17:57;;;;;;;11.13;2.23;;;15.80;99.90;;;;;;5047406;28;20041;-56
2023/07/15 07:20:25;;;;;;;4.45;1.50;;;15.80;99.90;;;;;;5047620;28;20294;-57
2023/07/15 07:22:53;;;;;;;6.22;1.88;;;15.80;99.90;;;;;;5045133;28;20136;-57
2023/07/15 07:25:20;;;;;;;7.22;2.00;;;15.90;99.90;;;;;;5046220;28;20056;-57
2023/07/15 07:27:48;;;;;;;8.93;2.70;;;15.90;99.90;;;;;;5046901;28;20664;-57
2023/07/15 07:30:23;;;;;;;4.95;2.13;;;16.10;99.90;;;;;;5047494;28;20047;-57
2023/07/15 07:32:52;;;;;;;10.35;2.20;;;16.10;99.90;;;;;;5029617;28;20053;-57
2023/07/15 07:35:19;;;;;;;8.52;1.73;;;16.20;99.90;;;;;;5047615;28;20048;-58
2023/07/15 07:37:48;;;;;;;9.13;2.42;;;16.20;99.90;;;;;;5044434;28;20071;-57
2023/07/15 07:40:16;;;;;;;5.03;1.70;;;16.30;99.90;;;;;;5040584;28;20477;-57
2023/07/15 07:42:44;;;;;;;7.00;2.20;;;16.40;99.90;;;;;;5044632;28;20404;-57
2023/07/15 07:45:16;;;;;;;9.68;1.80;;;16.40;99.90;;;;;;5041213;28;20056;-58
2023/07/15 07:47:44;;;;;;;7.88;1.65;;;16.40;99.90;;;;;;5047098;28;20041;-57
2023/07/15 07:50:12;;;;;;;12.00;2.92;;;16.40;99.90;;;;;;5046831;28;20044;-57
2023/07/15 07:52:39;;;;;;;10.85;1.83;;;16.30;99.90;;;;;;5043461;28;20400;-56
2023/07/15 07:55:08;;;;;;;7.38;1.40;;;16.30;99.90;;;;;;5046382;28;20045;-57
2023/07/15 07:57:36;;;;;;;6.22;2.05;;;16.30;99.90;;;;;;5046735;28;20045;-56
2023/07/15 08:00:05;;;;;;;7.43;2.28;;;16.20;99.90;;;;;;5044777;28;20041;-56
2023/07/15 08:02:32;;;;;;;11.10;2.28;;;16.20;99.90;;;;;;5051101;28;20037;-56
2023/07/15 08:05:00;;;;;;;7.78;1.50;;;16.20;99.90;;;;;;5051623;28;20056;-60
2023/07/15 08:07:28;;;;;;;8.75;2.00;;;16.20;99.90;;;;;;5046718;28;20646;-59
2023/07/15 08:09:55;;;;;;;5.28;1.40;;;16.30;99.90;;;;;;5045750;28;20052;-59
2023/07/15 08:12:23;;;;;;;8.23;1.42;;;16.50;99.90;;;;;;5046544;28;20049;-58
2023/07/15 08:14:51;;;;;;;5.53;1.75;;;16.50;99.90;;;;;;5046351;28;20056;-57
2023/07/15 08:17:19;;;;;;;10.50;1.60;;;16.70;99.90;;;;;;5040010;28;20052;-57
2023/07/15 08:19:47;;;;;;;6.50;1.17;;;16.70;99.90;;;;;;5043158;28;20080;-59
2023/07/15 08:22:14;;;;;;;7.65;1.40;;;16.80;99.90;;;;;;5037327;28;20172;-58
2023/07/15 08:24:42;;;;;;;3.80;1.10;;;16.40;99.90;;;;;;5047903;28;20037;-58
2023/07/15 08:27:10;;;;;;;5.75;1.17;;;17.00;99.90;;;;;;5050371;28;20045;-59
2023/07/15 08:29:37;;;;;;;5.60;1.40;;;17.00;99.90;;;;;;5047784;28;20052;-60
2023/07/15 08:32:06;;;;;;;6.03;1.48;;;17.10;99.90;;;;;;5043682;28;20056;-58
2023/07/15 08:34:33;;;;;;;4.68;0.90;;;17.10;99.90;;;;;;5038728;28;20472;-57
2023/07/15 08:37:01;;;;;;;4.43;1.20;;;17.10;99.90;;;;;;5051484;28;20044;-58
2023/07/15 08:39:29;;;;;;;8.70;1.20;;;17.00;99.90;;;;;;5045058;28;20033;-59
2023/07/15 08:41:59;;;;;;;6.38;1.00;;;17.00;99.90;;;;;;5046531;28;20046;-59
2023/07/15 08:44:27;;;;;;;4.45;1.02;;;16.90;99.90;;;;;;5047854;28;20033;-59
2023/07/15 08:46:55;;;;;;;5.60;1.02;;;16.80;99.90;;;;;;5043460;28;20056;-59
2023/07/15 08:49:23;;;;;;;5.57;1.10;;;16.80;99.90;;;;;;5038656;28;20041;-58
2023/07/15 08:51:52;;;;;;;5.32;1.08;;;16.80;99.90;;;;;;5049840;28;20056;-59
2023/07/15 08:54:20;;;;;;;3.10;1.23;;;16.70;99.90;;;;;;5048109;28;20048;-57
2023/07/15 08:56:48;;;;;;;7.22;1.50;;;16.80;99.90;;;;;;5049868;28;20052;-56
2023/07/15 08:59:18;;;;;;;6.43;1.60;;;16.80;99.90;;;;;;5041631;28;20048;-57
2023/07/15 09:01:46;;;;;;;10.48;1.83;;;16.80;99.90;;;;;;5048637;28;20041;-57
2023/07/15 09:04:13;;;;;;;2.92;1.35;;;16.90;99.90;;;;;;5027213;28;20041;-58
2023/07/15 09:06:42;;;;;;;5.93;1.10;;;17.10;99.90;;;;;;5051850;28;20068;-59
2023/07/15 09:09:12;;;;;;;7.55;1.00;;;17.20;99.90;;;;;;5045894;28;20037;-59
2023/07/15 09:11:41;;;;;;;3.55;1.00;;;17.30;99.90;;;;;;5047679;28;20064;-59
2023/07/15 09:14:15;;;;;;;6.07;1.10;;;17.30;99.90;;;;;;5044213;28;20055;-58
2023/07/15 09:16:43;;;;;;;5.20;0.95;;;17.20;99.90;;;;;;5047628;28;20064;-58
2023/07/15 09:19:11;;;;;;;4.55;0.82;;;17.20;99.90;;;;;;5044349;28;20400;-57
2023/07/15 09:21:51;;;;;;;5.93;1.10;;;17.10;99.90;;;;;;5045260;28;20396;-58
2023/07/15 09:24:19;;;;;;;5.05;1.38;;;17.00;99.90;;;;;;5047974;28;20044;-57
2023/07/15 09:26:51;;;;;;;4.82;1.10;;;17.00;99.90;;;;;;5049174;28;20052;-57
2023/07/15 09:29:20;;;;;;;4.43;0.95;;;16.90;99.90;;;;;;5045898;28;20060;-58
2023/07/15 09:31:48;;;;;;;7.95;1.27;;;16.90;99.90;;;;;;5038700;28;20500;-57
2023/07/15 09:34:20;;;;;;;1.73;1.20;;;16.90;99.90;;;;;;5051600;28;20060;-57
2023/07/15 09:36:48;;;;;;;5.22;1.05;;;16.90;99.90;;;;;;5046800;28;20060;-57
2023/07/15 09:39:19;;;;;;;3.13;0.88;;;16.90;99.90;;;;;;5039328;28;20045;-59
2023/07/15 09:42:04;;;;;;;5.00;1.23;;;16.90;99.90;;;;;;5048999;28;20045;-57
2023/07/15 09:44:33;;;;;;;3.40;1.30;;;16.90;99.90;;;;;;5045434;28;20038;-57
2023/07/15 09:47:05;;;;;;;6.28;1.38;;;16.90;99.90;;;;;;5049257;28;20041;-58
2023/07/15 09:49:34;;;;;;;4.25;1.08;;;17.00;99.90;;;;;;5050009;28;20052;-58
2023/07/15 09:52:05;;;;;;;3.75;1.10;;;17.10;99.90;;;;;;5046536;28;20987;-57
2023/07/15 09:54:34;;;;;;;3.85;1.15;;;17.20;99.90;;;;;;5040690;28;20049;-57
2023/07/15 09:57:10;;;;;;;4.70;1.05;;;17.20;99.90;;;;;;5048807;28;20503;-57
2023/07/15 09:59:52;;;;;;;4.43;1.10;;;17.10;99.90;;;;;;5048757;28;20045;-57
2023/07/15 10:02:42;;;;;;;6.13;1.60;;;17.00;99.90;;;;;;5038598;28;20056;-57
2023/07/15 10:05:13;;;;;;;;;;;16.90;99.90;;;;;;5037186;28;20057;-57
2023/07/15 10:07:41;;;;;;;3.75;0.88;;;16.90;99.90;;;;;;5044861;28;20555;-57
2023/07/15 10:10:09;;;;;;;3.38;1.35;;;16.90;99.90;;;;;;5045334;28;20041;-58
2023/07/15 10:12:38;;;;;;;4.75;1.10;;;16.80;99.90;;;;;;5047201;28;20053;-58
2023/07/15 10:15:07;;;;;;;7.18;1.00;;;16.90;99.90;;;;;;5032194;28;20609;-56
2023/07/15 10:17:36;;;;;;;5.63;1.13;;;16.80;99.90;;;;;;5047626;28;20037;-57
2023/07/15 10:20:11;;;;;;;8.40;1.60;;;16.80;99.90;;;;;;5041879;28;20045;-59
2023/07/15 10:22:42;;;;;;;3.88;1.00;;;16.50;99.90;;;;;;5048140;28;20140;-57
2023/07/15 10:25:15;;;;;;;1.33;0.63;;;16.00;99.90;;;;;;5037334;28;20878;-56
2023/07/15 10:27:43;;;;;;;2.90;0.80;;;15.60;99.90;;;;;;5039086;28;20049;-56
2023/07/15 10:30:23;;;;;;;4.65;0.80;;;15.30;99.90;;;;;;5042680;28;20037;-55
2023/07/15 10:33:00;;;;;;;;;;;15.00;99.90;;;;;;5043543;28;20033;-56
2023/07/15 10:35:31;;;;;;;3.40;1.10;;;15.00;99.90;;;;;;5041953;28;19921;-54
2023/07/15 10:40:57;;;;;;;2.13;0.80;;;14.80;99.90;;;;;;5021952;28;20524;-56
2023/07/15 10:43:34;;;;;;;5.85;1.38;;;14.90;99.90;;;;;;5036664;28;20056;-55
2023/07/15 10:46:52;;;;;;;6.88;1.40;;;15.10;99.90;;;;;;5035841;28;20048;-55
2023/07/15 10:49:21;;;;;;;9.60;1.52;;;15.20;99.90;;;;;;5040119;28;20056;-55
2023/07/15 10:51:52;;;;;;;3.70;1.35;;;15.30;99.90;;;;;;5026026;28;20037;-54
2023/07/15 10:54:22;;;;;;;2.75;1.13;;;15.40;99.90;;;;;;5030754;28;20393;-56
2023/07/15 10:56:50;;;;;;;4.20;1.27;;;15.60;99.90;;;;;;5034258;28;20049;-57
2023/07/15 10:59:18;;;;;;;5.60;1.48;;;15.70;99.90;;;;;;5037271;28;20063;-57
2023/07/15 11:01:46;;;;;;;3.13;1.17;;;16.00;99.90;;;;;;5030898;28;20049;-58
2023/07/15 11:04:19;;;;;;;5.00;1.20;;;16.10;99.90;;;;;;5038190;28;20409;-59
2023/07/15 11:06:47;;;;;;;2.35;0.80;;;16.10;99.90;;;;;;5035537;28;20053;-59
2023/07/15 11:09:20;;;;;;;1.58;0.73;;;16.00;99.90;;;;;;5031486;28;20048;-60
2023/07/15 11:11:50;;;;;;;4.43;0.95;;;15.60;99.90;;;;;;5034514;28;20049;-57
2023/07/15 11:14:18;;;;;;;1.95;0.90;;;15.40;99.90;;;;;;5034763;28;20056;-56
2023/07/15 11:16:49;;;;;;;3.03;0.77;;;15.00;99.90;;;;;;5036520;28;20045;-60
2023/07/15 11:19:17;;;;;;;2.38;0.60;;;14.70;99.90;;;;;;5031985;28;20049;-59
2023/07/15 11:21:45;;;;;;;3.05;0.85;;;14.50;99.90;;;;;;5027733;28;20057;-60
2023/07/15 11:24:13;;;;;;;4.88;1.27;;;14.20;99.90;;;;;;5037818;28;20041;-57
2023/07/15 11:26:42;;;;;;;4.13;0.95;;;14.10;99.90;;;;;;5043155;28;20041;-55
2023/07/15 11:29:23;;;;;;;1.70;0.52;;;14.00;99.90;;;;;;5045093;28;20610;-56
2023/07/15 11:31:57;;;;;;;3.00;0.70;;;13.20;99.90;;;;;;5043043;28;20044;-57
2023/07/15 11:34:27;;;;;;;4.93;1.38;;;14.10;99.90;;;;;;5038867;28;20049;-55
2023/07/15 11:36:55;;;;;;;2.28;0.65;;;14.20;99.90;;;;;;5039051;28;20385;-56
2023/07/15 11:39:25;;;;;;;4.40;0.80;;;14.30;99.90;;;;;;5043918;28;20505;-61
2023/07/15 11:41:53;;;;;;;5.10;0.80;;;14.50;99.90;;;;;;5036051;28;20063;-59
2023/07/15 11:44:22;;;;;;;3.58;0.90;;;14.80;99.90;;;;;;5034811;28;20049;-63
2023/07/15 11:46:50;;;;;;;1.77;0.75;;;14.90;99.90;;;;;;5034259;28;20527;-63
2023/07/15 11:49:21;;;;;;;1.27;0.70;;;15.20;99.90;;;;;;5044964;28;20488;-61
2023/07/15 11:51:53;;;;;;;2.20;0.75;;;15.40;99.90;;;;;;5046972;28;20431;-56
2023/07/15 11:54:21;;;;;;;5.20;1.33;;;15.70;99.90;;;;;;5042440;28;20044;-59
2023/07/15 11:56:53;;;;;;;3.83;0.80;;;16.00;99.90;;;;;;5035012;28;20412;-56
2023/07/15 11:59:31;;;;;;;3.15;0.80;;;16.50;99.90;;;;;;5054479;28;20041;-56
2023/07/15 12:02:02;;;;;;;2.80;1.13;;;16.90;99.90;;;;;;5043234;28;20045;-59
2023/07/15 12:04:31;;;;;;;2.97;0.82;;;17.30;99.90;;;;;;5042379;28;20045;-60
2023/07/15 12:07:03;;;;;;;4.65;1.10;;;17.80;99.90;;;;;;5038768;28;20056;-58
2023/07/15 12:09:31;;;;;;;4.55;0.88;;;18.20;99.90;;;;;;5048512;28;20056;-60
2023/07/15 12:11:59;;;;;;;4.85;0.90;;;18.50;99.90;;;;;;5048313;28;20045;-57
2023/07/15 12:14:30;;;;;;;6.15;1.30;;;18.90;99.90;;;;;;5043862;28;20064;-58
2023/07/15 12:17:02;;;;;;;6.20;0.90;;;19.20;99.90;;;;;;5044178;28;20037;-58
2023/07/15 12:19:32;;;;;;;5.85;0.80;;;19.60;99.90;;;;;;5044924;28;20056;-56
2023/07/15 12:22:00;;;;;;;4.65;1.08;;;19.80;99.90;;;;;;5050518;28;20052;-56
2023/07/15 12:24:28;;;;;;;6.47;0.75;;;20.00;99.90;;;;;;5049152;28;20060;-57
2023/07/15 12:26:55;;;;;;;4.38;0.80;;;20.20;99.90;;;;;;5043649;28;20045;-57
2023/07/15 12:29:24;;;;;;;5.35;1.10;;;20.50;99.90;;;;;;5048824;28;20518;-58
2023/07/15 12:31:51;;;;;;;1.65;0.73;;;20.80;99.90;;;;;;5046590;28;20053;-56
2023/07/15 12:34:19;;;;;;;5.10;1.02;;;21.10;99.90;;;;;;5048138;28;20056;-56
2023/07/15 12:36:47;;;;;;;4.32;0.80;;;21.40;99.90;;;;;;5048773;28;20068;-55
2023/07/15 12:39:16;;;;;;;4.25;1.00;;;21.50;99.90;;;;;;5049915;28;20051;-56
2023/07/15 12:41:43;;;;;;;4.68;0.90;;;21.30;99.90;;;;;;5044525;28;20045;-56
2023/07/15 12:44:12;;;;;;;4.47;0.98;;;21.10;99.90;;;;;;5049801;28;20052;-55
2023/07/15 12:46:40;;;;;;;3.63;0.85;;;20.70;99.90;;;;;;5046436;28;20048;-56
2023/07/15 12:49:08;;;;;;;3.67;0.50;;;20.30;99.90;;;;;;5047529;28;20519;-56
2023/07/15 12:51:35;;;;;;;1.42;0.60;;;19.90;99.90;;;;;;5043095;28;20508;-61
2023/07/15 12:54:03;;;;;;;3.05;0.50;;;19.50;99.90;;;;;;5046349;28;20413;-60
2023/07/15 12:56:31;;;;;;;5.10;0.98;;;19.50;99.90;;;;;;5045576;28;20037;-58
2023/07/15 12:58:58;;;;;;;3.13;0.73;;;19.60;99.90;;;;;;5044509;28;20053;-61